createdAt,value
2022-12-03T00:02:00.378Z,26.40
2022-12-03T00:04:26.958Z,21.20
2022-12-03T00:06:53.737Z,19.13
2022-12-03T00:09:20.835Z,24.13
2022-12-03T00:11:47.376Z,21.00
2022-12-03T00:14:14.194Z,18.42
2022-12-03T00:16:40.801Z,19.65
2022-12-03T00:19:07.828Z,22.30
2022-12-03T00:21:34.716Z,23.17
2022-12-03T00:24:01.470Z,19.40
2022-12-03T00:26:28.041Z,22.65
2022-12-03T00:28:55.223Z,21.90
2022-12-03T00:31:23.428Z,18.58
2022-12-03T00:33:51.344Z,18.13
2022-12-03T00:36:19.132Z,20.50
2022-12-03T00:38:45.881Z,19.13
2022-12-03T00:41:13.085Z,20.00
2022-12-03T00:43:39.606Z,18.83
2022-12-03T00:46:06.312Z,18.73
2022-12-03T00:48:32.918Z,16.38
2022-12-03T00:50:59.549Z,16.17
2022-12-03T00:53:26.062Z,19.90
2022-12-03T00:55:52.676Z,16.00
2022-12-03T00:58:19.314Z,17.17
2022-12-03T01:00:45.831Z,17.77
2022-12-03T01:03:12.447Z,18.48
2022-12-03T01:05:39.316Z,17.52
2022-12-03T01:08:05.999Z,16.35
2022-12-03T01:10:32.530Z,16.42
2022-12-03T01:12:59.068Z,18.98
2022-12-03T01:15:25.590Z,17.17
2022-12-03T01:17:54.164Z,17.25
2022-12-03T01:20:20.762Z,15.75
2022-12-03T01:22:47.290Z,17.20
2022-12-03T01:25:13.890Z,15.10
2022-12-03T01:27:40.468Z,17.55
2022-12-03T01:30:07.810Z,16.02
2022-12-03T01:32:34.327Z,18.58
2022-12-03T01:35:00.974Z,14.95
2022-12-03T01:37:27.644Z,15.18
2022-12-03T01:39:54.762Z,13.82
2022-12-03T01:42:28.000Z,17.08
2022-12-03T01:44:56.738Z,15.57
2022-12-03T01:47:34.132Z,17.75
2022-12-03T01:50:15.642Z,16.42
2022-12-03T01:52:42.543Z,15.15
2022-12-03T01:55:16.446Z,20.35
2022-12-03T01:57:47.956Z,15.68
2022-12-03T02:00:17.018Z,16.40
2022-12-03T02:02:43.692Z,18.80
2022-12-03T02:05:21.563Z,16.88
2022-12-03T02:07:48.412Z,17.88
2022-12-03T02:10:16.386Z,15.43
2022-12-03T02:12:48.562Z,16.98
2022-12-03T02:15:15.238Z,18.13
2022-12-03T02:17:42.095Z,19.48
2022-12-03T02:20:10.330Z,17.27
2022-12-03T02:25:15.916Z,20.60
2022-12-03T02:27:42.903Z,19.17
2022-12-03T02:30:10.149Z,22.50
2022-12-03T02:32:37.504Z,17.05
2022-12-03T02:35:04.726Z,19.95
2022-12-03T02:37:35.738Z,17.77
2022-12-03T02:40:09.754Z,18.83
2022-12-03T02:42:37.178Z,19.70
2022-12-03T02:45:14.167Z,20.48
2022-12-03T02:47:45.501Z,18.52
2022-12-03T02:50:15.586Z,20.80
2022-12-03T02:52:44.005Z,18.25
2022-12-03T02:55:11.018Z,17.15
2022-12-03T02:57:38.411Z,23.63
2022-12-03T03:00:07.880Z,20.25
2022-12-03T03:02:36.557Z,18.40
2022-12-03T03:05:04.270Z,19.88
2022-12-03T03:07:30.935Z,18.20
2022-12-03T03:09:58.463Z,19.73
2022-12-03T03:12:25.085Z,19.52
2022-12-03T03:14:52.670Z,21.15
2022-12-03T03:17:19.501Z,22.08
2022-12-03T03:19:47.100Z,19.35
2022-12-03T03:22:13.790Z,20.52
2022-12-03T03:24:40.420Z,20.05
2022-12-03T03:27:07.108Z,18.80
2022-12-03T03:29:33.976Z,20.10
2022-12-03T03:32:01.753Z,18.75
2022-12-03T03:34:29.754Z,17.83
2022-12-03T03:36:56.366Z,18.38
2022-12-03T03:39:22.916Z,19.02
2022-12-03T03:41:49.494Z,19.83
2022-12-03T03:44:16.083Z,20.38
2022-12-03T03:46:42.973Z,19.05
2022-12-03T03:49:10.464Z,18.85
2022-12-03T03:51:37.537Z,18.73
2022-12-03T03:54:05.548Z,16.38
2022-12-03T03:56:32.921Z,15.98
2022-12-03T03:58:59.738Z,20.00
2022-12-03T04:01:27.168Z,18.15
2022-12-03T04:03:55.143Z,21.42
2022-12-03T04:06:21.726Z,19.52
2022-12-03T04:08:48.272Z,18.80
2022-12-03T04:11:33.477Z,20.55
2022-12-03T04:13:59.972Z,20.35
2022-12-03T04:16:26.616Z,20.98
2022-12-03T04:18:53.221Z,19.52
2022-12-03T04:21:40.463Z,21.17
2022-12-03T04:24:08.705Z,20.60
2022-12-03T04:29:20.682Z,19.92
2022-12-03T04:32:05.877Z,20.00
2022-12-03T04:34:51.502Z,20.30
2022-12-03T04:37:18.362Z,18.92
2022-12-03T04:39:44.963Z,18.58
2022-12-03T04:42:11.619Z,20.38
2022-12-03T04:44:38.200Z,20.38
2022-12-03T04:47:13.333Z,20.38
2022-12-03T04:49:42.315Z,20.98
2022-12-03T04:52:10.126Z,18.55
2022-12-03T04:54:37.237Z,18.13
2022-12-03T04:57:05.001Z,18.48
2022-12-03T05:01:59.164Z,18.15
2022-12-03T05:04:26.778Z,21.77
2022-12-03T05:06:53.299Z,22.35
2022-12-03T05:09:19.859Z,18.38
2022-12-03T05:11:46.383Z,19.38
2022-12-03T05:14:12.915Z,21.42
2022-12-03T05:16:39.835Z,21.05
2022-12-03T05:19:07.890Z,20.80
2022-12-03T05:21:34.710Z,23.42
2022-12-03T05:24:01.455Z,20.92
2022-12-03T05:26:28.224Z,21.27
2022-12-03T05:28:54.975Z,24.10
2022-12-03T05:31:21.642Z,22.60
2022-12-03T05:33:48.236Z,25.60
2022-12-03T05:36:15.156Z,22.27
2022-12-03T05:38:41.652Z,23.77
2022-12-03T05:41:28.133Z,21.25
2022-12-03T05:43:54.708Z,21.20
2022-12-03T05:46:21.312Z,23.88
2022-12-03T05:48:47.944Z,22.90
2022-12-03T05:51:14.752Z,23.20
2022-12-03T05:53:41.380Z,32.90
2022-12-03T05:56:08.031Z,23.38
2022-12-03T05:58:34.740Z,26.10
2022-12-03T06:01:01.299Z,25.77
2022-12-03T06:03:28.169Z,26.15
2022-12-03T06:05:55.051Z,31.17
2022-12-03T06:08:21.784Z,28.70
2022-12-03T06:10:48.327Z,39.40
2022-12-03T06:13:15.135Z,34.20
2022-12-03T06:15:44.036Z,29.15
2022-12-03T06:18:11.235Z,28.88
2022-12-03T06:20:37.841Z,32.40
2022-12-03T06:23:06.239Z,29.73
2022-12-03T06:25:33.408Z,26.58
2022-12-03T06:27:59.980Z,24.65
2022-12-03T06:30:26.479Z,29.50
2022-12-03T06:32:53.088Z,30.30
2022-12-03T06:35:19.673Z,22.33
2022-12-03T06:37:48.824Z,29.73
2022-12-03T06:40:16.726Z,28.95
2022-12-03T06:42:43.592Z,27.33
2022-12-03T06:45:10.439Z,31.17
2022-12-03T06:47:37.134Z,27.77
2022-12-03T06:50:05.398Z,26.20
2022-12-03T06:54:58.354Z,23.35
2022-12-03T06:57:24.932Z,26.63
2022-12-03T06:59:51.730Z,27.33
2022-12-03T07:02:18.666Z,28.35
2022-12-03T07:04:46.533Z,28.15
2022-12-03T07:07:13.579Z,27.58
2022-12-03T07:09:40.556Z,25.40
2022-12-03T07:12:07.532Z,26.67
2022-12-03T07:14:34.098Z,25.48
2022-12-03T07:17:00.600Z,36.25
2022-12-03T07:19:32.290Z,34.97
2022-12-03T07:21:59.223Z,49.55
2022-12-03T07:24:25.795Z,45.13
2022-12-03T07:26:52.404Z,39.83
2022-12-03T07:29:19.015Z,37.92
2022-12-03T07:31:45.808Z,33.40
2022-12-03T07:34:12.455Z,30.88
2022-12-03T07:36:39.479Z,29.65
2022-12-03T07:39:06.009Z,27.45
2022-12-03T07:41:32.578Z,33.65
2022-12-03T07:43:59.205Z,27.58
2022-12-03T07:46:25.825Z,32.83
2022-12-03T07:48:52.484Z,34.97
2022-12-03T07:51:19.082Z,35.00
2022-12-03T07:53:45.687Z,32.55
2022-12-03T07:56:12.348Z,31.65
2022-12-03T07:58:38.942Z,35.58
2022-12-03T08:01:05.773Z,35.92
2022-12-03T08:03:32.403Z,30.45
2022-12-03T08:05:59.006Z,36.75
2022-12-03T08:08:25.630Z,28.80
2022-12-03T08:10:52.267Z,31.92
2022-12-03T08:13:19.232Z,30.23
2022-12-03T08:15:46.078Z,26.27
2022-12-03T08:18:22.052Z,30.15
2022-12-03T08:20:51.702Z,30.83
2022-12-03T08:23:19.227Z,30.08
2022-12-03T08:25:46.445Z,29.75
2022-12-03T08:28:21.883Z,29.35
2022-12-03T08:31:02.018Z,26.85
2022-12-03T08:33:30.987Z,32.55
2022-12-03T08:35:57.494Z,31.60
2022-12-03T08:38:25.238Z,25.80
2022-12-03T08:40:52.810Z,34.35
2022-12-03T08:43:32.670Z,29.05
2022-12-03T08:45:59.530Z,27.42
2022-12-03T08:48:44.026Z,27.65
2022-12-03T08:51:26.684Z,30.08
2022-12-03T08:54:03.519Z,27.27
2022-12-03T08:56:31.171Z,31.42
2022-12-03T08:58:59.563Z,31.10
2022-12-03T09:01:43.806Z,30.45
2022-12-03T09:04:41.497Z,27.33
2022-12-03T09:07:08.339Z,17.63
2022-12-03T09:09:35.016Z,32.25
2022-12-03T09:12:02.322Z,24.48
2022-12-03T09:14:28.966Z,28.15
2022-12-03T09:16:56.416Z,25.27
2022-12-03T09:19:29.996Z,34.47
2022-12-03T09:21:56.882Z,29.20
2022-12-03T09:24:23.555Z,29.13
2022-12-03T09:26:50.164Z,29.23
2022-12-03T09:29:17.226Z,31.27
2022-12-03T09:31:44.285Z,28.80
2022-12-03T09:34:11.206Z,26.38
2022-12-03T09:36:37.842Z,26.38
2022-12-03T09:39:04.689Z,29.25
2022-12-03T09:41:31.443Z,30.38
2022-12-03T09:44:05.895Z,28.75
2022-12-03T09:46:36.544Z,27.38
2022-12-03T09:49:04.658Z,28.27
2022-12-03T09:51:36.241Z,34.47
2022-12-03T09:54:05.812Z,25.77
2022-12-03T09:56:42.055Z,23.95
2022-12-03T09:59:14.424Z,28.02
2022-12-03T10:01:41.609Z,26.77
2022-12-03T10:04:11.846Z,24.25
2022-12-03T10:06:45.857Z,22.73
2022-12-03T10:09:17.251Z,21.92
2022-12-03T10:11:44.156Z,20.65
2022-12-03T10:14:12.462Z,22.92
2022-12-03T10:16:40.556Z,16.77
2022-12-03T10:21:48.688Z,24.25
2022-12-03T10:24:19.865Z,20.10
2022-12-03T10:26:47.740Z,22.65
2022-12-03T10:29:34.265Z,21.23
2022-12-03T10:32:06.098Z,20.25
2022-12-03T10:34:34.985Z,28.77
2022-12-03T10:37:21.105Z,17.08
2022-12-03T10:40:11.005Z,20.30
2022-12-03T10:42:39.599Z,21.73
2022-12-03T10:45:22.560Z,22.73
2022-12-03T10:48:13.642Z,22.77
2022-12-03T10:50:54.641Z,27.70
2022-12-03T10:53:28.849Z,23.25
2022-12-03T10:55:59.398Z,28.90
2022-12-03T10:58:28.832Z,25.33
2022-12-03T11:00:57.763Z,25.98
2022-12-03T11:03:25.462Z,26.65
2022-12-03T11:05:52.849Z,22.02
2022-12-03T11:08:22.649Z,20.80
2022-12-03T11:11:24.043Z,20.05
2022-12-03T11:13:52.855Z,25.90
2022-12-03T11:16:41.363Z,26.67
2022-12-03T11:19:43.916Z,22.88
2022-12-03T11:22:10.638Z,22.90
2022-12-03T11:24:40.809Z,23.95
2022-12-03T11:27:16.734Z,24.65
2022-12-03T11:29:47.969Z,25.58
2022-12-03T11:32:39.578Z,20.88
2022-12-03T11:35:13.862Z,18.15
2022-12-03T11:37:40.516Z,20.52
2022-12-03T11:40:28.527Z,21.83
2022-12-03T11:42:55.125Z,16.63
2022-12-03T11:45:28.969Z,25.17
2022-12-03T11:47:58.510Z,21.30
2022-12-03T11:50:33.640Z,18.23
2022-12-03T11:53:15.936Z,19.38
2022-12-03T11:55:48.383Z,22.40
2022-12-03T11:58:30.289Z,22.25
2022-12-03T12:00:58.666Z,24.27
2022-12-03T12:03:26.967Z,19.10
2022-12-03T12:06:08.251Z,20.52
2022-12-03T12:08:36.615Z,12.65
2022-12-03T12:11:04.052Z,21.05
2022-12-03T12:13:30.459Z,20.25
2022-12-03T12:15:58.685Z,22.65
2022-12-03T12:18:41.550Z,20.55
2022-12-03T12:21:43.429Z,22.00
2022-12-03T12:24:32.951Z,21.17
2022-12-03T12:27:02.131Z,17.30
2022-12-03T12:29:28.749Z,21.17
2022-12-03T12:32:15.205Z,24.00
2022-12-03T12:34:47.793Z,18.88
2022-12-03T12:37:20.218Z,21.58
2022-12-03T12:39:46.852Z,21.02
2022-12-03T12:42:31.696Z,20.50
2022-12-03T12:45:01.068Z,22.95
2022-12-03T12:47:29.824Z,20.92
2022-12-03T12:49:56.998Z,25.20
2022-12-03T12:52:23.921Z,21.02
2022-12-03T12:54:50.788Z,26.35
2022-12-03T12:57:21.875Z,24.35
2022-12-03T12:59:48.894Z,22.83
2022-12-03T13:02:27.239Z,20.95
2022-12-03T13:04:53.889Z,22.98
2022-12-03T13:07:20.514Z,18.52
2022-12-03T13:09:48.950Z,21.33
2022-12-03T13:12:22.285Z,22.33
2022-12-03T13:14:49.210Z,16.95
2022-12-03T13:17:19.627Z,21.17
2022-12-03T13:19:49.406Z,22.88
2022-12-03T13:22:20.377Z,27.38
2022-12-03T13:27:17.319Z,19.25
2022-12-03T13:29:56.787Z,22.30
2022-12-03T13:32:30.831Z,22.00
2022-12-03T13:35:12.111Z,19.40
2022-12-03T13:37:38.764Z,24.17
2022-12-03T13:40:24.794Z,23.70
2022-12-03T13:42:52.540Z,25.30
2022-12-03T13:47:53.549Z,24.92
2022-12-03T13:50:40.988Z,19.88
2022-12-03T13:55:48.265Z,21.17
2022-12-03T13:58:14.871Z,25.85
2022-12-03T14:00:41.721Z,21.70
2022-12-03T14:03:08.738Z,26.52
2022-12-03T14:05:35.364Z,25.50
2022-12-03T14:08:02.474Z,21.23
2022-12-03T14:10:29.480Z,21.48
2022-12-03T14:12:56.658Z,19.95
2022-12-03T14:15:23.440Z,23.95
2022-12-03T14:17:50.011Z,26.33
2022-12-03T14:20:17.282Z,20.52
2022-12-03T14:22:43.808Z,24.92
2022-12-03T14:25:10.817Z,23.23
2022-12-03T14:27:37.431Z,20.98
2022-12-03T14:30:04.759Z,21.65
2022-12-03T14:32:31.272Z,27.42
2022-12-03T14:34:57.838Z,24.90
2022-12-03T14:37:24.471Z,21.05
2022-12-03T14:39:51.050Z,18.15
2022-12-03T14:42:18.242Z,21.85
2022-12-03T14:44:46.675Z,22.05
2022-12-03T14:47:13.892Z,20.63
2022-12-03T14:49:40.816Z,24.90
2022-12-03T14:52:12.131Z,20.05
2022-12-03T14:54:41.984Z,16.65
2022-12-03T14:57:08.872Z,21.70
2022-12-03T14:59:35.511Z,19.02
2022-12-03T15:02:02.230Z,20.30
2022-12-03T15:04:28.893Z,17.17
2022-12-03T15:06:55.477Z,17.73
2022-12-03T15:09:22.308Z,17.98
2022-12-03T15:11:48.857Z,18.45
2022-12-03T15:14:15.484Z,20.75
2022-12-03T15:16:42.113Z,18.05
2022-12-03T15:19:09.082Z,17.27
2022-12-03T15:21:35.847Z,15.80
2022-12-03T15:24:03.157Z,15.20
2022-12-03T15:26:30.282Z,20.08
2022-12-03T15:28:57.034Z,17.80
2022-12-03T15:31:23.736Z,16.90
2022-12-03T15:33:50.704Z,16.92
2022-12-03T15:36:17.684Z,16.00
2022-12-03T15:38:44.294Z,19.98
2022-12-03T15:41:32.822Z,17.48
2022-12-03T15:44:03.908Z,17.92
2022-12-03T15:46:31.504Z,15.15
2022-12-03T15:48:58.372Z,19.17
2022-12-03T15:51:25.342Z,13.50
2022-12-03T15:53:51.955Z,19.13
2022-12-03T15:56:18.501Z,19.67
2022-12-03T15:58:45.143Z,12.10
2022-12-03T16:01:13.630Z,18.77
2022-12-03T16:03:41.254Z,19.05
2022-12-03T16:06:08.754Z,13.57
2022-12-03T16:08:35.264Z,18.48
2022-12-03T16:11:01.729Z,15.00
2022-12-03T16:13:28.379Z,20.80
2022-12-03T16:15:55.042Z,14.80
2022-12-03T16:18:21.663Z,18.45
2022-12-03T16:20:48.263Z,14.23
2022-12-03T16:23:14.877Z,19.08
2022-12-03T16:25:41.584Z,14.55
2022-12-03T16:28:08.208Z,13.88
2022-12-03T16:30:35.746Z,16.38
2022-12-03T16:33:02.398Z,19.67
2022-12-03T16:35:28.963Z,16.98
2022-12-03T16:37:55.633Z,21.95
2022-12-03T16:40:22.646Z,19.77
2022-12-03T16:42:49.210Z,20.98
2022-12-03T16:45:21.766Z,21.25
2022-12-03T16:47:49.387Z,18.38
2022-12-03T16:50:21.911Z,18.73
2022-12-03T16:52:54.155Z,17.00
2022-12-03T16:55:20.778Z,15.50
2022-12-03T16:57:47.396Z,19.20
2022-12-03T17:00:14.582Z,19.48
2022-12-03T17:02:41.266Z,19.10
2022-12-03T17:05:08.167Z,16.85
2022-12-03T17:07:34.854Z,20.48
2022-12-03T17:10:01.464Z,24.20
2022-12-03T17:12:42.214Z,20.50
2022-12-03T17:15:14.670Z,20.38
2022-12-03T17:17:41.200Z,21.00
2022-12-03T17:20:08.695Z,19.13
2022-12-03T17:22:35.412Z,20.42
2022-12-03T17:25:02.053Z,19.65
2022-12-03T17:27:29.479Z,24.00
2022-12-03T17:29:56.313Z,23.73
2022-12-03T17:32:22.975Z,19.02
2022-12-03T17:34:49.524Z,22.25
2022-12-03T17:37:16.076Z,19.67
2022-12-03T17:39:42.721Z,17.95
2022-12-03T17:42:09.416Z,17.33
2022-12-03T17:44:35.977Z,21.42
2022-12-03T17:47:02.558Z,22.65
2022-12-03T17:49:31.698Z,19.15
2022-12-03T17:51:58.421Z,21.65
2022-12-03T17:54:37.989Z,27.83
2022-12-03T17:57:11.566Z,21.52
2022-12-03T17:59:38.161Z,27.58
2022-12-03T18:02:04.824Z,18.83
2022-12-03T18:04:31.455Z,29.63
2022-12-03T18:07:02.207Z,24.25
2022-12-03T18:09:29.203Z,23.05
2022-12-03T18:11:55.943Z,24.48
2022-12-03T18:14:22.467Z,18.75
2022-12-03T18:16:49.032Z,26.40
2022-12-03T18:19:15.713Z,21.75
2022-12-03T18:21:42.844Z,24.15
2022-12-03T18:24:09.617Z,25.52
2022-12-03T18:26:36.420Z,22.23
2022-12-03T18:29:03.371Z,25.45
2022-12-03T18:31:30.241Z,24.42
2022-12-03T18:33:56.965Z,26.00
2022-12-03T18:36:25.572Z,23.60
2022-12-03T18:38:55.178Z,26.40
2022-12-03T18:41:25.053Z,21.95
2022-12-03T18:43:51.657Z,26.17
2022-12-03T18:46:45.028Z,27.10
2022-12-03T18:49:07.241Z,22.98
2022-12-03T18:51:33.993Z,26.70
2022-12-03T18:54:00.599Z,27.35
2022-12-03T18:56:27.285Z,27.17
2022-12-03T18:58:53.933Z,24.20
2022-12-03T19:01:22.466Z,24.60
2022-12-03T19:03:49.912Z,22.15
2022-12-03T19:06:20.876Z,18.55
2022-12-03T19:08:54.069Z,24.75
2022-12-03T19:11:21.749Z,25.40
2022-12-03T19:13:48.677Z,22.52
2022-12-03T19:16:17.026Z,23.70
2022-12-03T19:18:44.370Z,27.70
2022-12-03T19:21:13.757Z,28.88
2022-12-03T19:23:40.690Z,28.75
2022-12-03T19:26:08.681Z,27.50
2022-12-03T19:28:35.877Z,25.75
2022-12-03T19:31:05.470Z,28.42
2022-12-03T19:33:32.977Z,29.38
2022-12-03T19:36:00.402Z,28.65
2022-12-03T19:38:28.493Z,32.22
2022-12-03T19:43:32.901Z,29.52
2022-12-03T19:46:12.497Z,34.88
2022-12-03T19:48:40.428Z,27.88
2022-12-03T19:51:33.049Z,26.08
2022-12-03T19:53:56.025Z,31.73
2022-12-03T19:56:23.697Z,36.35
2022-12-03T19:58:54.191Z,32.55
2022-12-03T20:01:24.321Z,31.98
2022-12-03T20:03:53.185Z,33.25
2022-12-03T20:06:23.212Z,30.30
2022-12-03T20:08:50.468Z,33.03
2022-12-03T20:11:21.831Z,38.17
2022-12-03T20:13:53.710Z,35.63
2022-12-03T20:16:21.207Z,35.58
2022-12-03T20:18:49.331Z,28.83
2022-12-03T20:21:17.777Z,26.95
2022-12-03T20:23:46.778Z,31.85
2022-12-03T20:26:18.595Z,31.15
2022-12-03T20:28:46.314Z,27.75
2022-12-03T20:31:15.885Z,27.75
2022-12-03T20:33:48.075Z,28.38
2022-12-03T20:36:16.799Z,29.88
2022-12-03T20:38:46.250Z,28.77
2022-12-03T20:41:20.276Z,28.92
2022-12-03T20:43:47.599Z,28.23
2022-12-03T20:46:26.069Z,30.95
2022-12-03T20:48:56.561Z,26.55
2022-12-03T20:51:26.853Z,27.80
2022-12-03T20:53:54.087Z,32.00
2022-12-03T20:56:24.180Z,28.55
2022-12-03T20:58:51.113Z,28.00
2022-12-03T21:01:26.321Z,32.72
2022-12-03T21:03:54.904Z,32.95
2022-12-03T21:06:22.818Z,34.15
2022-12-03T21:08:49.406Z,31.80
2022-12-03T21:11:18.405Z,32.97
2022-12-03T21:13:45.515Z,32.50
2022-12-03T21:16:14.507Z,30.15
2022-12-03T21:18:42.615Z,36.63
2022-12-03T21:21:11.660Z,27.10
2022-12-03T21:23:38.377Z,25.95
2022-12-03T21:26:07.183Z,32.25
2022-12-03T21:28:33.904Z,26.85
2022-12-03T21:31:06.019Z,31.05
2022-12-03T21:33:33.189Z,23.80
2022-12-03T21:36:00.378Z,26.40
2022-12-03T21:38:28.773Z,24.05
2022-12-03T21:40:56.085Z,26.90
2022-12-03T21:43:22.855Z,28.13
2022-12-03T21:45:49.986Z,23.15
2022-12-03T21:48:17.190Z,26.98
2022-12-03T21:50:44.095Z,30.50
2022-12-03T21:53:10.675Z,22.63
2022-12-03T21:55:41.044Z,30.55
2022-12-03T21:58:08.915Z,27.88
2022-12-03T22:00:35.935Z,29.50
2022-12-03T22:03:02.731Z,25.23
2022-12-03T22:05:29.366Z,26.38
2022-12-03T22:07:55.955Z,21.90
2022-12-03T22:10:22.592Z,24.50
2022-12-03T22:12:49.096Z,25.25
2022-12-03T22:15:19.133Z,27.90
2022-12-03T22:17:47.624Z,25.55
2022-12-03T22:20:14.758Z,20.05
2022-12-03T22:22:41.277Z,28.17
2022-12-03T22:25:08.261Z,26.67
2022-12-03T22:27:34.858Z,28.65
2022-12-03T22:30:01.708Z,29.00
2022-12-03T22:32:28.601Z,27.42
2022-12-03T22:34:55.231Z,25.88
2022-12-03T22:37:21.791Z,27.88
2022-12-03T22:39:48.415Z,25.42
2022-12-03T22:42:15.148Z,21.90
2022-12-03T22:44:42.177Z,31.45
2022-12-03T22:47:08.782Z,26.80
2022-12-03T22:49:35.419Z,27.73
2022-12-03T22:52:01.965Z,26.63
2022-12-03T22:54:28.548Z,25.58
2022-12-03T22:56:55.647Z,25.77
2022-12-03T22:59:22.269Z,20.50
2022-12-03T23:01:48.868Z,26.73
2022-12-03T23:04:15.518Z,23.15
2022-12-03T23:06:43.485Z,25.75
2022-12-03T23:09:10.122Z,24.83
2022-12-03T23:11:37.035Z,22.77
2022-12-03T23:14:03.671Z,25.33
2022-12-03T23:16:31.820Z,22.55
2022-12-03T23:18:59.898Z,25.70
2022-12-03T23:21:30.252Z,26.35
2022-12-03T23:23:58.791Z,23.45
2022-12-03T23:26:26.471Z,26.52
2022-12-03T23:28:53.446Z,21.90
2022-12-03T23:31:26.208Z,24.95
2022-12-03T23:33:53.695Z,23.73
2022-12-03T23:36:21.308Z,25.25
2022-12-03T23:38:47.923Z,23.48
2022-12-03T23:41:16.882Z,26.75
2022-12-03T23:43:43.531Z,23.65
2022-12-03T23:46:12.658Z,22.83
2022-12-03T23:48:39.594Z,26.30
2022-12-03T23:51:11.034Z,25.48
2022-12-03T23:53:38.419Z,29.40
2022-12-03T23:56:06.831Z,23.00
2022-12-03T23:58:33.942Z,21.58
